Time;durP1;ratioP1;P1;durP2;ratioP2;P2;SDS_P1;SDS_P2;PMS_P1;PMS_P2;Temp;Humidity;BMP_temperature;BMP_pressure;BME280_temperature;BME280_humidity;BME280_pressure;Samples;Min_cycle;Max_cycle;Signal;HPM_P1;HPM_P2
2023/05/06 00:01:23;;;;;;;7.30;6.60;;;;;;;9.66;87.98;97681.78;6232061;28;20246;-49
2023/05/06 00:04:25;;;;;;;7.43;6.20;;;;;;;9.42;87.15;97639.28;6231004;28;20328;-50
2023/05/06 00:07:27;;;;;;;7.60;6.40;;;;;;;9.63;87.57;97675.06;6231446;28;20707;-48
2023/05/06 00:10:30;;;;;;;8.47;6.93;;;;;;;9.65;87.34;97672.97;6229883;28;20697;-52
2023/05/06 00:13:32;;;;;;;6.90;6.13;;;;;;;9.64;87.27;97671.34;6227458;28;20241;-49
2023/05/06 00:16:34;;;;;;;8.67;7.20;;;;;;;9.66;87.95;97676.47;6224180;28;20233;-48
2023/05/06 00:19:37;;;;;;;8.93;6.83;;;;;;;9.65;87.22;97672.97;6231479;28;20235;-48
2023/05/06 00:22:39;;;;;;;9.10;7.30;;;;;;;9.64;87.58;97674.03;6231025;28;20241;-49
2023/05/06 00:25:41;;;;;;;8.87;6.83;;;;;;;9.62;87.82;97684.09;6231384;28;20234;-53
2023/05/06 00:28:43;;;;;;;8.77;6.80;;;;;;;9.61;88.33;97694.97;6231628;28;20314;-49
2023/05/06 00:31:45;;;;;;;8.47;6.80;;;;;;;9.64;88.28;97745.03;6229559;28;20683;-50
2023/05/06 00:34:48;;;;;;;9.07;7.17;;;;;;;9.63;88.08;97783.31;6229082;28;20236;-49
2023/05/06 00:37:57;;;;;;;11.30;7.50;;;;;;;9.88;88.30;97775.06;6228904;28;20226;-48
2023/05/06 00:40:59;;;;;;;7.80;6.13;;;;;;;10.00;88.32;97759.88;6230908;28;20279;-49
2023/05/06 00:44:01;;;;;;;7.37;6.60;;;;;;;10.16;88.16;97758.34;6231434;28;20233;-48
2023/05/06 00:47:03;;;;;;;7.30;6.47;;;;;;;10.28;87.60;97751.94;6228874;28;20237;-51
2023/05/06 00:50:06;;;;;;;7.17;6.03;;;;;;;10.52;86.67;97765.97;6229515;28;20234;-50
2023/05/06 00:53:09;;;;;;;6.90;6.00;;;;;;;10.74;86.05;97762.63;6230725;28;20234;-51
2023/05/06 00:56:12;;;;;;;7.00;5.93;;;;;;;10.67;85.87;97735.31;6228396;28;20251;-52
2023/05/06 00:59:14;;;;;;;6.73;6.13;;;;;;;10.88;85.37;97753.25;6225767;28;20227;-52
2023/05/06 01:02:16;;;;;;;8.90;6.10;;;;;;;10.96;85.19;97752.84;6226835;28;20248;-52
2023/05/06 01:05:21;;;;;;;5.97;5.37;;;;;;;11.07;84.65;97749.28;6229862;28;20228;-49
2023/05/06 01:08:36;;;;;;;10.53;6.10;;;;;;;10.96;83.70;97702.22;6229531;28;20321;-52
2023/05/06 01:12:01;;;;;;;6.30;5.47;;;;;;;11.32;83.19;97745.38;6220631;28;20228;-53
2023/05/06 01:15:10;;;;;;;7.30;4.50;;;;;;;11.35;83.34;97742.25;6217322;28;20330;-52
2023/05/06 01:18:19;;;;;;;5.50;4.60;;;;;;;11.36;83.37;97749.19;6224730;28;20321;-52
2023/05/06 01:21:23;;;;;;;4.43;4.03;;;;;;;11.41;83.25;97753.78;6229542;28;20235;-51
2023/05/06 01:24:39;;;;;;;6.00;3.67;;;;;;;11.44;82.88;97740.78;6228171;28;20231;-48
2023/05/06 01:27:41;;;;;;;5.47;3.50;;;;;;;11.49;82.98;97743.50;6227693;28;20232;-48
2023/05/06 01:30:59;;;;;;;1.47;1.23;;;;;;;12.32;75.61;97730.94;6228160;28;20265;-50
2023/05/06 01:34:14;;;;;;;4.20;2.43;;;;;;;12.40;77.95;97745.69;6226493;28;20326;-48
2023/05/06 01:37:33;;;;;;;2.27;1.90;;;;;;;12.40;78.37;97743.03;6225873;28;20236;-49
2023/05/06 01:40:37;;;;;;;1.83;1.20;;;;;;;12.34;77.68;97728.81;6230267;28;20321;-48
2023/05/06 01:43:42;;;;;;;2.20;0.77;;;;;;;12.70;74.75;97731.81;6229763;28;20235;-49
2023/05/06 01:46:45;;;;;;;1.90;0.97;;;;;;;12.85;75.59;97739.97;6224988;28;20246;-49
2023/05/06 01:49:47;;;;;;;1.10;1.00;;;;;;;12.93;75.50;97746.72;6228704;28;20302;-49
2023/05/06 01:53:00;;;;;;;1.60;0.80;;;;;;;12.95;74.69;97744.59;6226975;28;20234;-49
2023/05/06 01:56:02;;;;;;;5.13;0.83;;;;;;;13.04;74.58;97742.25;6228734;28;20242;-48
2023/05/06 01:59:05;;;;;;;1.57;0.63;;;;;;;13.11;74.60;97743.66;6228888;28;20760;-48
2023/05/06 02:02:07;;;;;;;0.63;0.63;;;;;;;13.39;72.09;97734.50;6234202;28;20239;-49
2023/05/06 02:05:10;;;;;;;1.70;0.90;;;;;;;13.70;70.69;97739.25;6232930;28;20705;-47
2023/05/06 02:08:17;;;;;;;4.20;0.60;;;;;;;13.64;71.56;97733.88;6224896;28;20246;-49
2023/05/06 02:11:19;;;;;;;1.00;0.80;;;;;;;13.40;71.22;97698.66;6224748;28;20223;-49
2023/05/06 02:14:24;;;;;;;0.57;0.53;;;;;;;13.71;70.72;97735.50;6219309;28;20321;-48
2023/05/06 02:17:26;;;;;;;2.00;0.60;;;;;;;13.89;70.14;97725.16;6223269;28;20721;-49
2023/05/06 02:20:30;;;;;;;1.10;0.50;;;;;;;14.23;67.02;97721.22;6225066;28;20243;-50
2023/05/06 02:23:32;;;;;;;0.40;0.40;;;;;;;14.16;67.75;97719.59;6228740;28;20697;-49
2023/05/06 02:26:34;;;;;;;0.57;0.40;;;;;;;14.23;67.67;97723.91;6228927;28;20242;-51
2023/05/06 02:29:37;;;;;;;0.63;0.47;;;;;;;14.25;66.69;97722.56;6229044;28;20235;-49
2023/05/06 02:32:40;;;;;;;0.60;0.60;;;;;;;14.24;67.78;97725.53;6228935;28;20243;-49
2023/05/06 02:35:42;;;;;;;0.53;0.50;;;;;;;14.00;68.31;97707.22;6224601;28;20235;-49
2023/05/06 02:38:44;;;;;;;1.33;0.50;;;;;;;14.24;66.49;97725.53;6229628;28;20300;-49
2023/05/06 02:41:46;;;;;;;0.57;0.50;;;;;;;14.10;67.82;97723.34;6227971;28;20234;-50
2023/05/06 02:44:48;;;;;;;0.53;0.50;;;;;;;13.98;69.39;97721.94;6227153;28;20285;-51
2023/05/06 02:47:50;;;;;;;1.50;0.50;;;;;;;13.79;70.49;97719.75;6223836;28;20314;-51
2023/05/06 02:50:52;;;;;;;0.73;0.57;;;;;;;13.66;70.81;97717.53;6228619;28;20224;-50
2023/05/06 02:53:54;;;;;;;0.77;0.50;;;;;;;13.55;71.77;97724.72;6237860;28;20360;-49
2023/05/06 02:56:56;;;;;;;0.67;0.50;;;;;;;13.12;72.79;97686.44;6276150;28;20843;-52
2023/05/06 02:59:58;;;;;;;2.20;0.50;;;;;;;13.30;73.39;97733.41;6258779;28;20262;-49
2023/05/06 03:03:00;;;;;;;1.43;0.60;;;;;;;13.24;73.74;97728.25;6258485;28;20301;-49
2023/05/06 03:06:03;;;;;;;1.00;0.60;;;;;;;13.15;73.89;97727.88;6276840;28;20255;-50
2023/05/06 03:09:05;;;;;;;0.50;0.50;;;;;;;13.05;74.93;97727.81;6248762;28;20218;-49
2023/05/06 03:12:07;;;;;;;0.50;0.50;;;;;;;13.02;75.27;97731.03;6275922;28;20222;-49
2023/05/06 03:15:10;;;;;;;0.80;0.80;;;;;;;12.97;75.79;97722.97;6275781;28;20249;-49
2023/05/06 03:18:12;;;;;;;2.10;0.50;;;;;;;12.89;76.54;97724.22;6270506;28;20695;-49
2023/05/06 03:21:14;;;;;;;0.60;0.60;;;;;;;12.83;76.54;97726.06;6246425;28;20590;-49
2023/05/06 03:24:19;;;;;;;2.10;0.77;;;;;;;12.74;76.82;97716.88;6258587;28;20609;-49
2023/05/06 03:27:22;;;;;;;2.23;0.87;;;;;;;12.74;76.47;97726.78;6249554;28;20223;-48
2023/05/06 03:30:28;;;;;;;1.33;0.87;;;;;;;12.69;77.31;97724.84;6276175;28;20235;-52
2023/05/06 03:33:34;;;;;;;1.10;0.70;;;;;;;12.54;77.39;97706.81;6257825;28;20242;-49
2023/05/06 03:36:38;;;;;;;1.83;0.60;;;;;;;12.50;77.18;97710.25;6273947;28;20253;-49
2023/05/06 03:39:40;;;;;;;0.80;0.80;;;;;;;12.62;78.05;97726.94;6266569;28;20253;-48
2023/05/06 03:42:44;;;;;;;1.73;0.70;;;;;;;12.56;78.05;97744.81;6259414;28;20309;-49
2023/05/06 03:45:47;;;;;;;0.70;0.70;;;;;;;12.54;77.90;97730.88;6276111;28;20234;-52
2023/05/06 03:48:49;;;;;;;2.03;0.70;;;;;;;12.51;78.39;97735.91;6257413;28;20241;-48
2023/05/06 03:51:53;;;;;;;2.10;0.90;;;;;;;12.47;78.73;97740.97;6259309;28;20241;-48
2023/05/06 03:54:56;;;;;;;2.00;1.00;;;;;;;12.54;78.06;97741.56;6261849;28;20250;-52
2023/05/06 03:58:00;;;;;;;1.60;1.17;;;;;;;12.46;78.92;97739.34;6263239;28;20320;-49
2023/05/06 04:01:03;;;;;;;1.20;1.03;;;;;;;12.23;79.42;97718.28;6253370;28;20725;-50
2023/05/06 04:04:06;;;;;;;1.53;0.93;;;;;;;12.36;79.76;97753.44;6279627;28;20241;-50
2023/05/06 04:07:09;;;;;;;1.00;0.90;;;;;;;12.32;80.09;97754.19;6262230;28;20792;-52
2023/05/06 04:10:11;;;;;;;2.97;0.90;;;;;;;12.30;79.74;97753.59;6277869;28;20317;-50
2023/05/06 04:13:16;;;;;;;0.87;0.70;;;;;;;12.30;79.92;97756.28;6257291;28;20272;-52
2023/05/06 04:16:19;;;;;;;0.83;0.80;;;;;;;12.30;80.17;97753.59;6279362;28;20684;-50
2023/05/06 04:19:22;;;;;;;3.73;0.77;;;;;;;12.30;80.17;97754.41;6262383;28;20356;-51
2023/05/06 04:22:24;;;;;;;1.77;0.90;;;;;;;12.30;80.30;97750.94;6279053;28;20238;-49
2023/05/06 04:25:28;;;;;;;1.10;1.00;;;;;;;12.28;80.98;97761.06;6279416;28;20309;-50
2023/05/06 04:28:31;;;;;;;1.17;0.80;;;;;;;12.29;80.98;97743.97;6261360;28;20226;-50
2023/05/06 04:31:33;;;;;;;0.80;0.70;;;;;;;12.32;80.81;97763.00;6252563;28;20238;-49
2023/05/06 04:34:38;;;;;;;1.87;0.80;;;;;;;12.36;80.87;97763.28;6278005;28;20229;-50
2023/05/06 04:37:43;;;;;;;1.43;0.80;;;;;;;12.33;81.52;97766.47;6258940;28;20234;-51
2023/05/06 04:40:54;;;;;;;1.53;0.80;;;;;;;12.36;81.23;97772.13;6260755;28;20223;-48
2023/05/06 04:43:56;;;;;;;0.80;0.70;;;;;;;12.40;81.62;97780.41;6260554;28;20713;-51
2023/05/06 04:46:58;;;;;;;0.83;0.80;;;;;;;12.37;81.85;97786.28;6260850;28;20325;-49
2023/05/06 04:50:00;;;;;;;0.63;0.63;;;;;;;12.38;81.82;97780.69;6261286;28;20227;-51
2023/05/06 04:53:03;;;;;;;1.77;0.60;;;;;;;12.40;82.23;97786.56;6261481;28;20730;-49
2023/05/06 04:56:07;;;;;;;0.70;0.70;;;;;;;12.45;81.97;97798.38;6260005;28;20234;-50
2023/05/06 04:59:10;;;;;;;1.70;0.87;;;;;;;12.46;82.50;97799.97;6262121;28;20307;-50
2023/05/06 05:02:13;;;;;;;0.50;0.50;;;;;;;12.49;82.02;97800.28;6256801;28;20237;-52
2023/05/06 05:05:17;;;;;;;1.07;0.70;;;;;;;12.50;82.91;97804.56;6268852;28;20284;-51
2023/05/06 05:08:22;;;;;;;1.40;0.73;;;;;;;12.52;82.68;97801.69;6260612;28;20537;-50
2023/05/06 05:11:24;;;;;;;0.77;0.70;;;;;;;12.51;83.10;97806.22;6242352;28;20303;-51
2023/05/06 05:14:27;;;;;;;2.00;0.80;;;;;;;12.52;83.14;97807.81;6261091;28;20283;-50
2023/05/06 05:17:29;;;;;;;0.80;0.80;;;;;;;12.53;83.13;97817.44;6265066;28;20219;-49
2023/05/06 05:20:31;;;;;;;1.93;0.80;;;;;;;12.52;83.08;97812.38;6256720;28;20230;-51
2023/05/06 05:23:35;;;;;;;0.70;0.70;;;;;;;12.58;83.68;97822.03;6260691;28;20307;-51
2023/05/06 05:26:37;;;;;;;1.03;0.93;;;;;;;12.60;83.45;97826.06;6274679;28;20257;-49
2023/05/06 05:29:40;;;;;;;1.47;0.93;;;;;;;12.62;83.32;97815.94;6278575;28;20230;-50
2023/05/06 05:32:43;;;;;;;0.90;0.90;;;;;;;12.65;83.92;97814.63;6259870;28;20241;-49
2023/05/06 05:35:45;;;;;;;0.73;0.70;;;;;;;12.67;83.67;97817.06;6277556;28;20265;-51
2023/05/06 05:38:49;;;;;;;1.10;1.00;;;;;;;12.70;84.18;97808.53;6251309;28;20232;-49
2023/05/06 05:41:52;;;;;;;3.07;1.00;;;;;;;12.74;84.03;97814.97;6251723;28;20253;-52
2023/05/06 05:44:54;;;;;;;1.87;1.73;;;;;;;12.76;85.04;97820.88;6260359;28;20233;-49
2023/05/06 05:47:58;;;;;;;1.70;1.43;;;;;;;12.76;85.71;97820.88;6259664;28;20244;-51
2023/05/06 05:51:01;;;;;;;3.53;1.30;;;;;;;12.78;85.93;97829.47;6262722;28;20257;-50
2023/05/06 05:54:03;;;;;;;0.97;0.97;;;;;;;12.63;85.95;97798.84;6273852;28;20236;-49
2023/05/06 05:57:05;;;;;;;1.10;1.00;;;;;;;12.85;85.58;97828.19;6277084;28;20585;-52
2023/05/06 06:00:08;;;;;;;1.17;1.10;;;;;;;12.96;85.25;97833.66;6275875;28;20961;-52
2023/05/06 06:03:18;;;;;;;2.20;1.20;;;;;;;13.06;85.26;97837.22;6276379;28;20579;-48
2023/05/06 06:06:20;;;;;;;0.93;0.90;;;;;;;13.17;85.51;97830.91;6277325;28;20257;-50
2023/05/06 06:09:23;;;;;;;0.90;0.90;;;;;;;13.31;84.74;97842.03;6257034;28;20360;-50
2023/05/06 06:12:26;;;;;;;1.03;1.00;;;;;;;13.41;84.64;97834.06;6258483;28;20707;-49
2023/05/06 06:15:28;;;;;;;0.80;0.80;;;;;;;13.53;84.84;97833.88;6256091;28;20249;-49
2023/05/06 06:18:31;;;;;;;1.00;0.93;;;;;;;13.61;84.60;97838.78;6271245;28;20279;-49
2023/05/06 06:21:33;;;;;;;1.10;1.00;;;;;;;13.66;84.38;97827.28;6274123;28;20229;-53
2023/05/06 06:24:35;;;;;;;1.23;0.90;;;;;;;13.82;83.95;97841.56;6257870;28;20867;-50
2023/05/06 06:27:37;;;;;;;0.70;0.70;;;;;;;13.93;83.92;97832.53;6258979;28;20238;-53
2023/05/06 06:30:41;;;;;;;1.97;0.90;;;;;;;14.03;83.99;97840.63;6250399;28;20230;-49
2023/05/06 06:33:43;;;;;;;0.80;0.80;;;;;;;14.11;83.14;97837.47;6277088;28;20620;-52
2023/05/06 06:36:45;;;;;;;1.00;0.90;;;;;;;14.20;83.25;97837.78;6272363;28;20574;-50
2023/05/06 06:39:47;;;;;;;1.40;0.83;;;;;;;14.06;83.00;97805.28;6274938;28;20608;-52
2023/05/06 06:42:50;;;;;;;0.83;0.70;;;;;;;14.32;82.64;97845.59;6273241;28;20785;-50
2023/05/06 06:46:10;;;;;;;1.30;1.20;;;;;;;14.33;81.83;97839.16;6271884;28;20231;-50
2023/05/06 06:49:12;;;;;;;1.10;1.03;;;;;;;14.31;81.42;97827.91;6275996;28;20230;-50
2023/05/06 06:52:14;;;;;;;1.23;0.90;;;;;;;14.39;80.83;97840.81;6276403;28;20616;-51
2023/05/06 06:55:17;;;;;;;1.50;1.20;;;;;;;14.40;80.04;97845.09;6276888;28;20707;-50
2023/05/06 06:58:19;;;;;;;0.93;0.93;;;;;;;14.44;80.50;97827.44;6277012;28;20230;-49
2023/05/06 07:01:21;;;;;;;1.50;1.40;;;;;;;14.49;80.17;97840.88;6275879;28;20234;-50
2023/05/06 07:04:24;;;;;;;1.00;1.00;;;;;;;14.55;80.03;97837.13;6275751;28;20599;-49
2023/05/06 07:07:26;;;;;;;1.27;1.10;;;;;;;14.53;80.13;97820.53;6271362;28;20235;-52
2023/05/06 07:10:28;;;;;;;1.63;1.20;;;;;;;14.76;79.63;97834.50;6275117;28;20236;-52
2023/05/06 07:13:31;;;;;;;1.43;1.30;;;;;;;14.84;77.83;97845.53;6276996;28;20777;-50
2023/05/06 07:16:37;;;;;;;1.63;1.40;;;;;;;14.96;76.55;97837.22;6272687;28;20582;-52
2023/05/06 07:19:39;;;;;;;1.77;1.20;;;;;;;15.07;75.42;97843.41;6275266;28;20238;-49
2023/05/06 07:22:42;;;;;;;1.47;1.20;;;;;;;15.25;73.48;97839.41;6276916;28;20288;-52
2023/05/06 07:25:44;;;;;;;1.30;1.13;;;;;;;15.43;73.52;97831.63;6263390;28;20227;-52
2023/05/06 07:28:46;;;;;;;1.23;1.10;;;;;;;15.55;73.47;97834.03;6281080;28;20256;-50
2023/05/06 07:31:48;;;;;;;1.27;1.17;;;;;;;15.61;70.73;97832.13;6281038;28;20817;-53
2023/05/06 07:34:50;;;;;;;1.10;1.00;;;;;;;15.81;70.34;97836.69;6280909;28;20230;-50
2023/05/06 07:37:52;;;;;;;0.90;0.90;;;;;;;15.94;69.43;97830.78;6276336;28;20233;-50
2023/05/06 07:40:55;;;;;;;1.77;0.73;;;;;;;15.94;69.55;97826.19;6280924;28;20222;-50
2023/05/06 07:43:57;;;;;;;1.20;0.93;;;;;;;16.06;67.73;97825.91;6280249;28;20280;-52
2023/05/06 07:46:59;;;;;;;1.60;1.07;;;;;;;16.49;66.14;97820.91;6280213;28;20218;-52
2023/05/06 07:50:03;;;;;;;1.10;1.00;;;;;;;16.70;64.88;97829.69;6262254;28;20229;-53
2023/05/06 07:53:06;;;;;;;1.17;0.80;;;;;;;16.84;66.40;97829.88;6280196;28;20380;-51
2023/05/06 07:56:07;;;;;;;2.23;0.80;;;;;;;16.89;64.75;97827.97;6280493;28;20659;-53
2023/05/06 07:59:10;;;;;;;1.00;0.90;;;;;;;17.09;62.68;97826.22;6281214;28;20733;-51
2023/05/06 08:02:12;;;;;;;1.10;0.90;;;;;;;17.18;65.20;97822.66;6275832;28;20230;-50
2023/05/06 08:05:16;;;;;;;1.20;1.10;;;;;;;17.49;62.64;97822.44;6262316;28;20226;-51
2023/05/06 08:08:18;;;;;;;1.30;0.90;;;;;;;17.67;62.55;97831.69;6280194;28;20354;-50
2023/05/06 08:11:20;;;;;;;2.57;1.07;;;;;;;18.11;59.63;97828.81;6275942;28;20303;-52
2023/05/06 08:14:24;;;;;;;2.43;0.77;;;;;;;18.29;60.20;97833.47;6279928;28;20371;-52
2023/05/06 08:17:26;;;;;;;1.47;0.70;;;;;;;18.51;54.80;97827.53;6278730;28;20226;-53
2023/05/06 08:20:28;;;;;;;1.70;0.90;;;;;;;18.47;58.81;97831.09;6261298;28;20339;-53
2023/05/06 08:23:31;;;;;;;1.53;0.87;;;;;;;18.53;59.25;97825.38;6279897;28;20284;-50
2023/05/06 08:26:33;;;;;;;1.47;0.80;;;;;;;18.47;57.12;97826.53;6266955;28;20238;-53
2023/05/06 08:29:35;;;;;;;1.40;0.90;;;;;;;18.83;55.99;97830.69;6279084;28;20671;-52
2023/05/06 08:32:38;;;;;;;1.27;0.83;;;;;;;18.97;53.78;97831.56;6276314;28;20637;-53
2023/05/06 08:35:40;;;;;;;0.80;0.73;;;;;;;18.77;53.18;97825.34;6279608;28;20222;-51
2023/05/06 08:38:49;;;;;;;0.70;0.70;;;;;;;18.64;57.57;97823.34;6280675;28;20841;-54
2023/05/06 08:41:55;;;;;;;1.97;0.90;;;;;;;18.59;57.65;97826.09;6279467;28;20707;-53
2023/05/06 08:44:58;;;;;;;1.03;0.90;;;;;;;18.66;54.73;97826.53;6278558;28;20261;-54
2023/05/06 08:48:01;;;;;;;0.77;0.77;;;;;;;18.57;56.53;97836.38;6279385;28;20321;-51
2023/05/06 08:51:03;;;;;;;4.00;1.03;;;;;;;18.56;57.42;97834.75;6277718;28;20211;-50
2023/05/06 08:54:07;;;;;;;1.33;0.90;;;;;;;18.63;55.54;97820.94;6276794;28;20632;-52
2023/05/06 08:57:13;;;;;;;2.33;0.70;;;;;;;18.80;54.57;97834.75;6278986;28;20207;-52
2023/05/06 09:00:16;;;;;;;1.73;0.83;;;;;;;18.72;54.20;97836.22;6278608;28;20221;-53
2023/05/06 09:03:18;;;;;;;1.03;0.80;;;;;;;18.64;56.25;97841.41;6273758;28;21072;-51
2023/05/06 09:06:22;;;;;;;1.00;0.90;;;;;;;18.55;55.85;97843.94;6278321;28;20229;-52
2023/05/06 09:09:25;;;;;;;1.30;1.00;;;;;;;18.49;56.94;97842.41;6277680;28;20299;-51
2023/05/06 09:12:27;;;;;;;1.03;0.80;;;;;;;18.45;57.98;97844.88;6276881;28;20623;-50
2023/05/06 09:15:39;;;;;;;1.23;1.03;;;;;;;18.41;56.90;97816.88;6278149;28;20240;-52
2023/05/06 09:18:41;;;;;;;0.97;0.80;;;;;;;18.46;57.10;97834.88;6273855;28;20287;-51
2023/05/06 09:21:46;;;;;;;1.27;1.00;;;;;;;18.46;58.50;97845.69;6278049;28;20322;-50
2023/05/06 09:24:55;;;;;;;1.27;0.80;;;;;;;18.44;58.90;97840.59;6277948;28;20469;-50
2023/05/06 09:28:10;;;;;;;1.17;1.00;;;;;;;18.35;57.19;97839.63;6277294;28;20235;-53
2023/05/06 09:31:15;;;;;;;1.10;1.00;;;;;;;18.30;58.63;97848.56;6276291;28;20738;-53
2023/05/06 09:34:19;;;;;;;4.50;1.07;;;;;;;18.26;59.55;97847.53;6277956;28;20739;-52
2023/05/06 09:37:23;;;;;;;2.57;0.90;;;;;;;18.33;57.37;97851.78;6278087;28;20237;-50
2023/05/06 09:40:25;;;;;;;1.50;0.90;;;;;;;18.29;58.42;97846.97;6260182;28;20234;-51
2023/05/06 09:43:27;;;;;;;2.00;0.93;;;;;;;18.30;58.63;97842.38;6277689;28;20238;-52
2023/05/06 09:46:30;;;;;;;0.80;0.80;;;;;;;18.26;57.67;97820.56;6275951;28;20268;-51
2023/05/06 09:49:32;;;;;;;1.40;1.00;;;;;;;18.50;57.93;97841.31;6274507;28;20280;-53
2023/05/06 09:52:35;;;;;;;1.10;0.87;;;;;;;18.56;56.60;97834.75;6277842;28;20287;-50
2023/05/06 09:55:39;;;;;;;1.07;0.80;;;;;;;18.67;56.74;97835.44;6275952;28;20284;-53
2023/05/06 09:58:41;;;;;;;1.23;0.90;;;;;;;18.74;59.84;97831.31;6259353;28;20227;-50
2023/05/06 10:01:44;;;;;;;1.07;0.70;;;;;;;18.75;53.27;97808.63;6273347;28;20603;-51
2023/05/06 10:04:47;;;;;;;1.37;0.83;;;;;;;18.95;56.10;97823.72;6276033;28;20234;-53
2023/05/06 10:07:52;;;;;;;1.03;0.90;;;;;;;19.32;54.31;97812.09;6276504;28;20646;-53
2023/05/06 10:10:55;;;;;;;0.77;0.73;;;;;;;19.56;53.93;97809.25;6277285;28;20606;-53
2023/05/06 10:13:59;;;;;;;1.70;1.20;;;;;;;19.69;54.57;97810.41;6268617;28;20230;-52
2023/05/06 10:17:05;;;;;;;1.20;1.00;;;;;;;19.80;52.25;97813.72;6276648;28;20707;-50
2023/05/06 10:20:09;;;;;;;3.33;1.00;;;;;;;19.74;51.01;97815.72;6276671;28;20228;-53
2023/05/06 10:23:14;;;;;;;1.10;1.00;;;;;;;19.52;53.32;97816.34;6277707;28;20230;-48
2023/05/06 10:26:20;;;;;;;2.70;0.93;;;;;;;19.53;51.24;97820.66;6275918;28;20234;-51
2023/05/06 10:29:25;;;;;;;0.90;0.80;;;;;;;19.46;51.16;97816.75;6277831;28;20321;-53
2023/05/06 10:32:31;;;;;;;1.63;1.00;;;;;;;19.55;51.23;97815.75;6273130;28;20318;-50
2023/05/06 10:35:43;;;;;;;2.70;1.10;;;;;;;19.38;51.52;97817.41;6275964;28;20245;-50
2023/05/06 10:38:53;;;;;;;1.80;1.00;;;;;;;19.67;51.33;97803.72;6276412;28;20584;-50
2023/05/06 10:41:55;;;;;;;1.90;0.87;;;;;;;19.57;51.64;97799.25;6272631;28;20223;-52
2023/05/06 10:45:00;;;;;;;1.97;0.80;;;;;;;19.53;51.41;97763.09;6277328;28;20272;-52
2023/05/06 10:48:02;;;;;;;0.90;0.90;;;;;;;19.94;51.83;97790.22;6276573;28;20241;-53
2023/05/06 10:51:23;;;;;;;1.53;0.93;;;;;;;20.23;50.06;97776.38;6275854;28;20245;-53
2023/05/06 10:54:25;;;;;;;3.07;1.03;;;;;;;20.35;49.80;97786.72;6274269;28;20309;-50
2023/05/06 10:57:40;;;;;;;1.13;1.03;;;;;;;20.32;50.81;97782.69;6276858;28;20230;-53
2023/05/06 11:00:53;;;;;;;1.23;1.00;;;;;;;20.25;50.12;97786.91;6274480;28;20280;-53
2023/05/06 11:03:56;;;;;;;2.63;1.00;;;;;;;20.16;49.42;97784.13;6279761;28;20222;-50
2023/05/06 11:07:13;;;;;;;1.53;1.03;;;;;;;20.18;50.18;97776.50;6277548;28;20230;-53
2023/05/06 11:10:31;;;;;;;1.30;1.20;;;;;;;20.43;48.61;97772.44;6278883;28;20719;-54
2023/05/06 11:13:34;;;;;;;1.40;1.10;;;;;;;20.33;50.38;97761.84;6279498;28;20227;-52
2023/05/06 11:16:49;;;;;;;1.17;1.00;;;;;;;20.72;48.52;97768.59;6281314;28;20222;-50
2023/05/06 11:20:18;;;;;;;1.40;1.27;;;;;;;20.69;48.18;97771.91;6279762;28;20655;-50
2023/05/06 11:23:20;;;;;;;1.23;0.93;;;;;;;20.49;50.05;97767.75;6280573;28;20305;-52
2023/05/06 11:26:23;;;;;;;2.87;1.20;;;;;;;20.38;48.44;97764.44;6278236;28;20242;-53
2023/05/06 11:29:25;;;;;;;0.90;0.90;;;;;;;20.20;49.53;97744.53;6281323;28;20253;-53
2023/05/06 11:32:28;;;;;;;2.37;1.00;;;;;;;20.25;49.17;97768.78;6274181;28;20590;-54
2023/05/06 11:35:36;;;;;;;1.27;0.93;;;;;;;20.30;48.19;97746.22;6280914;28;20236;-52
2023/05/06 11:38:44;;;;;;;2.87;0.90;;;;;;;20.35;50.80;97768.56;6280959;28;20226;-55
2023/05/06 11:41:46;;;;;;;0.80;0.80;;;;;;;20.20;50.85;97752.66;6276419;28;20261;-53
2023/05/06 11:44:48;;;;;;;0.80;0.80;;;;;;;20.43;50.36;97768.94;6281017;28;20990;-52
2023/05/06 11:47:53;;;;;;;1.43;0.70;;;;;;;20.47;48.28;97761.84;6279883;28;20319;-52
2023/05/06 11:50:55;;;;;;;1.93;0.93;;;;;;;20.81;47.22;97761.38;6280601;28;20586;-51
2023/05/06 11:54:06;;;;;;;1.20;1.10;;;;;;;20.87;49.63;97752.81;6280680;28;20230;-53
2023/05/06 11:57:08;;;;;;;1.73;1.00;;;;;;;20.52;47.66;97729.25;6277170;28;20694;-53
2023/05/06 12:00:11;;;;;;;0.83;0.70;;;;;;;20.59;47.23;97760.22;6270958;28;20585;-51
2023/05/06 12:03:14;;;;;;;1.37;0.90;;;;;;;20.58;48.34;97760.53;6261974;28;20211;-52
2023/05/06 12:06:17;;;;;;;2.83;0.93;;;;;;;20.91;46.80;97765.75;6279752;28;20222;-54
2023/05/06 12:09:23;;;;;;;1.60;1.00;;;;;;;21.38;42.78;97765.16;6280449;28;20258;-50
2023/05/06 12:12:26;;;;;;;0.97;0.93;;;;;;;21.46;43.21;97765.50;6275361;28;20227;-54
2023/05/06 12:15:29;;;;;;;1.00;0.90;;;;;;;21.53;42.54;97755.84;6280801;28;20645;-54
2023/05/06 12:18:31;;;;;;;1.03;1.00;;;;;;;21.68;42.82;97751.13;6277815;28;20226;-53
2023/05/06 12:21:37;;;;;;;1.30;1.10;;;;;;;21.78;42.82;97748.13;6279562;28;20312;-51
2023/05/06 12:24:39;;;;;;;1.30;1.20;;;;;;;21.70;42.38;97716.34;6279331;28;20238;-51
2023/05/06 12:27:41;;;;;;;0.87;0.80;;;;;;;21.95;40.05;97753.59;6274843;28;20288;-51
2023/05/06 12:30:44;;;;;;;0.80;0.70;;;;;;;21.90;40.13;97751.84;6279906;28;20282;-53
2023/05/06 12:33:50;;;;;;;0.80;0.80;;;;;;;21.85;43.11;97740.31;6284703;28;20288;-50
2023/05/06 12:36:52;;;;;;;1.20;1.10;;;;;;;22.04;41.56;97740.88;6279713;28;20234;-52
2023/05/06 12:39:54;;;;;;;1.87;0.90;;;;;;;22.02;40.61;97743.13;6277522;28;20233;-51
2023/05/06 12:43:00;;;;;;;1.57;1.00;;;;;;;22.25;41.50;97748.44;6279483;28;20230;-51
2023/05/06 12:46:06;;;;;;;1.10;1.00;;;;;;;21.89;40.94;97733.16;6278818;28;20734;-53
2023/05/06 12:49:08;;;;;;;0.93;0.80;;;;;;;21.54;42.17;97715.97;6278719;28;20222;-51
2023/05/06 12:52:10;;;;;;;1.80;1.13;;;;;;;21.81;41.01;97729.31;6278896;28;20648;-53
2023/05/06 12:55:15;;;;;;;0.80;0.80;;;;;;;21.62;43.43;97726.03;6278256;28;20323;-53
2023/05/06 12:58:20;;;;;;;1.03;0.90;;;;;;;21.57;43.36;97734.31;6279114;28;20231;-53
2023/05/06 13:01:22;;;;;;;2.63;0.90;;;;;;;21.55;42.37;97729.19;6279029;28;20222;-53
2023/05/06 13:04:25;;;;;;;1.87;0.93;;;;;;;21.32;42.55;97728.44;6274647;28;20234;-53
2023/05/06 13:07:27;;;;;;;3.57;0.70;;;;;;;21.34;43.19;97715.38;6278833;28;20279;-53
2023/05/06 13:10:29;;;;;;;1.00;0.90;;;;;;;21.44;43.29;97727.09;6279682;28;20265;-53
2023/05/06 13:13:31;;;;;;;0.70;0.70;;;;;;;21.62;42.14;97713.31;6278005;28;20345;-53
2023/05/06 13:16:34;;;;;;;1.30;0.80;;;;;;;21.70;44.71;97706.28;6273985;28;20644;-53
2023/05/06 13:19:36;;;;;;;0.50;0.50;;;;;;;21.73;45.15;97713.81;6276789;28;20230;-52
2023/05/06 13:22:38;;;;;;;2.27;0.97;;;;;;;21.81;42.81;97709.53;6278333;28;20241;-54
2023/05/06 13:25:55;;;;;;;0.70;0.70;;;;;;;21.98;38.87;97706.88;6275414;28;20227;-53
2023/05/06 13:29:05;;;;;;;1.03;0.70;;;;;;;21.91;40.92;97709.22;6278672;28;20231;-53
2023/05/06 13:32:07;;;;;;;0.70;0.70;;;;;;;22.43;40.64;97706.66;6274639;28;20295;-50
2023/05/06 13:35:10;;;;;;;1.20;0.70;;;;;;;22.42;36.23;97696.91;6278269;28;20241;-52
2023/05/06 13:38:12;;;;;;;0.90;0.80;;;;;;;22.18;38.84;97700.09;6277689;28;20233;-53
2023/05/06 13:41:14;;;;;;;0.93;0.70;;;;;;;22.00;37.75;97703.84;6277201;28;20584;-51
2023/05/06 13:44:20;;;;;;;1.03;0.83;;;;;;;21.79;39.17;97703.63;6277910;28;20234;-53
2023/05/06 13:47:22;;;;;;;0.70;0.63;;;;;;;21.80;42.60;97706.00;6278187;28;20280;-52
2023/05/06 13:50:24;;;;;;;1.23;0.83;;;;;;;21.89;39.55;97697.91;6277426;28;20230;-49
2023/05/06 13:53:26;;;;;;;1.77;0.80;;;;;;;22.14;38.76;97693.69;6277032;28;20233;-51
2023/05/06 13:56:28;;;;;;;0.77;0.60;;;;;;;22.29;40.85;97695.94;6276726;28;20262;-52
2023/05/06 13:59:30;;;;;;;3.03;1.57;;;;;;;22.13;46.06;97711.88;6276870;28;20236;-53
2023/05/06 14:02:33;;;;;;;1.40;1.30;;;;;;;21.67;46.09;97715.03;6276729;28;20309;-52
2023/05/06 14:05:35;;;;;;;1.57;1.47;;;;;;;21.22;47.34;97709.69;6276761;28;20234;-53
2023/05/06 14:08:37;;;;;;;1.63;1.50;;;;;;;21.16;46.79;97756.19;6276578;28;20230;-50
2023/05/06 14:11:39;;;;;;;1.73;1.00;;;;;;;20.72;47.06;97769.41;6272889;28;20719;-51
2023/05/06 14:14:41;;;;;;;1.80;1.10;;;;;;;20.14;48.92;97745.72;6273537;28;20292;-52
2023/05/06 14:17:43;;;;;;;1.00;0.90;;;;;;;19.95;49.20;97755.84;6274516;28;20907;-49
2023/05/06 14:20:45;;;;;;;1.70;1.00;;;;;;;20.02;49.60;97756.28;6278001;28;20218;-53
2023/05/06 14:23:47;;;;;;;1.60;0.90;;;;;;;20.01;50.30;97757.38;6276683;28;20845;-50
2023/05/06 14:26:49;;;;;;;1.07;0.97;;;;;;;19.89;50.50;97765.16;6257189;28;20252;-50